sensor_id;sensor_type;location;lat;lon;timestamp;pressure;altitude;pressure_sealevel;temperature;humidity
28306;BME280;7516;43.570;1.448;2023-08-30T00:01:47;99421.38;;;17.56;71.73
28306;BME280;7516;43.570;1.448;2023-08-30T00:04:15;99422.78;;;17.58;71.27
28306;BME280;7516;43.570;1.448;2023-08-30T00:06:42;99426.59;;;17.62;71.80
28306;BME280;7516;43.570;1.448;2023-08-30T00:09:10;99417.41;;;17.65;71.26
28306;BME280;7516;43.570;1.448;2023-08-30T00:11:39;99422.72;;;17.65;71.58
28306;BME280;7516;43.570;1.448;2023-08-30T00:14:08;99411.28;;;17.64;71.23
28306;BME280;7516;43.570;1.448;2023-08-30T00:16:35;99407.84;;;17.64;71.62
28306;BME280;7516;43.570;1.448;2023-08-30T00:19:04;99402.53;;;17.64;71.77
28306;BME280;7516;43.570;1.448;2023-08-30T00:21:31;99402.53;;;17.64;71.48
28306;BME280;7516;43.570;1.448;2023-08-30T00:23:59;99405.59;;;17.61;71.88
28306;BME280;7516;43.570;1.448;2023-08-30T00:26:26;99400.28;;;17.61;71.75
28306;BME280;7516;43.570;1.448;2023-08-30T00:28:54;99398.34;;;17.56;72.00
28306;BME280;7516;43.570;1.448;2023-08-30T00:31:23;99403.84;;;17.55;71.86
28306;BME280;7516;43.570;1.448;2023-08-30T00:33:50;99397.75;;;17.54;72.00
28306;BME280;7516;43.570;1.448;2023-08-30T00:36:18;99404.44;;;17.57;72.11
28306;BME280;7516;43.570;1.448;2023-08-30T00:38:45;99393.84;;;17.57;71.90
28306;BME280;7516;43.570;1.448;2023-08-30T00:41:13;99402.81;;;17.56;72.12
28306;BME280;7516;43.570;1.448;2023-08-30T00:43:40;99391.63;;;17.54;72.20
28306;BME280;7516;43.570;1.448;2023-08-30T00:46:08;99390.81;;;17.53;72.71
28306;BME280;7516;43.570;1.448;2023-08-30T00:48:36;99382.28;;;17.51;72.60
28306;BME280;7516;43.570;1.448;2023-08-30T00:51:04;99379.63;;;17.51;72.46
28306;BME280;7516;43.570;1.448;2023-08-30T00:53:32;99384.72;;;17.53;72.48
28306;BME280;7516;43.570;1.448;2023-08-30T00:56:00;99381.72;;;17.49;72.75
28306;BME280;7516;43.570;1.448;2023-08-30T00:58:28;99377.66;;;17.47;72.67
28306;BME280;7516;43.570;1.448;2023-08-30T01:00:56;99372.81;;;17.44;72.55
28306;BME280;7516;43.570;1.448;2023-08-30T01:03:23;99370.63;;;17.41;72.93
28306;BME280;7516;43.570;1.448;2023-08-30T01:05:52;99367.97;;;17.41;73.32
28306;BME280;7516;43.570;1.448;2023-08-30T01:08:20;99370.63;;;17.41;72.90
28306;BME280;7516;43.570;1.448;2023-08-30T01:10:53;99367.16;;;17.40;73.07
28306;BME280;7516;43.570;1.448;2023-08-30T01:13:24;99362.69;;;17.41;73.22
28306;BME280;7516;43.570;1.448;2023-08-30T01:15:54;99361.88;;;17.40;73.22
28306;BME280;7516;43.570;1.448;2023-08-30T01:18:27;99372.09;;;17.37;73.57
28306;BME280;7516;43.570;1.448;2023-08-30T01:20:58;99370.47;;;17.36;73.47
28306;BME280;7516;43.570;1.448;2023-08-30T01:23:38;99364.59;;;17.34;73.51
28306;BME280;7516;43.570;1.448;2023-08-30T01:26:11;99364.03;;;17.32;74.10
28306;BME280;7516;43.570;1.448;2023-08-30T01:28:41;99358.72;;;17.32;73.78
28306;BME280;7516;43.570;1.448;2023-08-30T01:31:10;99357.69;;;17.33;73.96
28306;BME280;7516;43.570;1.448;2023-08-30T01:33:40;99350.78;;;17.32;73.80
28306;BME280;7516;43.570;1.448;2023-08-30T01:36:09;99346.50;;;17.30;73.84
28306;BME280;7516;43.570;1.448;2023-08-30T01:38:37;99347.53;;;17.29;74.04
28306;BME280;7516;43.570;1.448;2023-08-30T01:41:06;99343.28;;;17.28;74.69
28306;BME280;7516;43.570;1.448;2023-08-30T01:43:33;99343.28;;;17.28;74.16
28306;BME280;7516;43.570;1.448;2023-08-30T01:46:04;99343.28;;;17.28;74.06
28306;BME280;7516;43.570;1.448;2023-08-30T01:48:33;99344.91;;;17.29;74.76
28306;BME280;7516;43.570;1.448;2023-08-30T01:51:03;99343.28;;;17.28;74.40
28306;BME280;7516;43.570;1.448;2023-08-30T01:53:31;99347.16;;;17.26;74.45
28306;BME280;7516;43.570;1.448;2023-08-30T01:55:59;99344.31;;;17.27;74.81
28306;BME280;7516;43.570;1.448;2023-08-30T01:58:29;99347.75;;;17.28;74.63
28306;BME280;7516;43.570;1.448;2023-08-30T02:00:57;99350.41;;;17.28;74.98
28306;BME280;7516;43.570;1.448;2023-08-30T02:03:26;99342.91;;;17.25;74.77
28306;BME280;7516;43.570;1.448;2023-08-30T02:06:00;99344.19;;;17.22;74.78
28306;BME280;7516;43.570;1.448;2023-08-30T02:08:35;99338.28;;;17.20;74.86
28306;BME280;7516;43.570;1.448;2023-08-30T02:11:07;99332.41;;;17.18;75.35
28306;BME280;7516;43.570;1.448;2023-08-30T02:13:39;99334.47;;;17.16;75.43
28306;BME280;7516;43.570;1.448;2023-08-30T02:16:08;99334.13;;;17.13;75.21
28306;BME280;7516;43.570;1.448;2023-08-30T02:18:38;99327.63;;;17.09;75.49
28306;BME280;7516;43.570;1.448;2023-08-30T02:21:06;99325.00;;;17.09;75.61
28306;BME280;7516;43.570;1.448;2023-08-30T02:23:33;99320.72;;;17.08;75.97
28306;BME280;7516;43.570;1.448;2023-08-30T02:26:01;99314.63;;;17.07;75.72
28306;BME280;7516;43.570;1.448;2023-08-30T02:28:29;99314.41;;;17.09;76.13
28306;BME280;7516;43.570;1.448;2023-08-30T02:30:57;99316.25;;;17.08;76.21
28306;BME280;7516;43.570;1.448;2023-08-30T02:33:24;99317.84;;;17.09;76.42
28306;BME280;7516;43.570;1.448;2023-08-30T02:35:53;99315.00;;;17.11;76.46
28306;BME280;7516;43.570;1.448;2023-08-30T02:38:21;99314.19;;;17.10;76.47
28306;BME280;7516;43.570;1.448;2023-08-30T02:40:48;99316.63;;;17.12;76.97
28306;BME280;7516;43.570;1.448;2023-08-30T02:43:16;99312.72;;;17.14;76.82
28306;BME280;7516;43.570;1.448;2023-08-30T02:45:44;99317.41;;;17.12;76.80
28306;BME280;7516;43.570;1.448;2023-08-30T02:48:11;99321.91;;;17.12;77.32
28306;BME280;7516;43.570;1.448;2023-08-30T02:50:38;99323.53;;;17.13;77.25
28306;BME280;7516;43.570;1.448;2023-08-30T02:53:07;99322.72;;;17.12;77.08
28306;BME280;7516;43.570;1.448;2023-08-30T02:55:35;99328.59;;;17.14;77.57
28306;BME280;7516;43.570;1.448;2023-08-30T02:58:03;99313.75;;;17.13;77.58
28306;BME280;7516;43.570;1.448;2023-08-30T03:00:30;99317.41;;;17.12;77.70
28306;BME280;7516;43.570;1.448;2023-08-30T03:03:00;99317.84;;;17.09;77.55
28306;BME280;7516;43.570;1.448;2023-08-30T03:05:28;99319.34;;;17.05;77.66
28306;BME280;7516;43.570;1.448;2023-08-30T03:07:56;99317.94;;;17.03;77.53
28306;BME280;7516;43.570;1.448;2023-08-30T03:10:25;99313.91;;;17.00;77.70
28306;BME280;7516;43.570;1.448;2023-08-30T03:12:52;99316.22;;;16.97;77.64
28306;BME280;7516;43.570;1.448;2023-08-30T03:15:20;99308.25;;;16.97;78.47
28306;BME280;7516;43.570;1.448;2023-08-30T03:17:47;99308.25;;;16.97;78.29
28306;BME280;7516;43.570;1.448;2023-08-30T03:20:15;99317.66;;;16.92;78.06
28306;BME280;7516;43.570;1.448;2023-08-30T03:22:42;99311.56;;;16.92;78.35
28306;BME280;7516;43.570;1.448;2023-08-30T03:25:10;99308.09;;;16.91;78.40
28306;BME280;7516;43.570;1.448;2023-08-30T03:27:39;99320.53;;;16.91;78.89
28306;BME280;7516;43.570;1.448;2023-08-30T03:30:07;99318.91;;;16.90;79.17
28306;BME280;7516;43.570;1.448;2023-08-30T03:32:35;99316.50;;;16.88;78.69
28306;BME280;7516;43.570;1.448;2023-08-30T03:35:03;99308.78;;;16.87;79.32
28306;BME280;7516;43.570;1.448;2023-08-30T03:37:31;99313.28;;;16.86;79.31
28306;BME280;7516;43.570;1.448;2023-08-30T03:39:58;99304.97;;;16.83;78.84
28306;BME280;7516;43.570;1.448;2023-08-30T03:42:26;99312.09;;;16.82;79.25
28306;BME280;7516;43.570;1.448;2023-08-30T03:44:54;99310.84;;;16.85;79.50
28306;BME280;7516;43.570;1.448;2023-08-30T03:47:22;99315.91;;;16.86;79.67
28306;BME280;7516;43.570;1.448;2023-08-30T03:49:49;99315.72;;;16.88;79.84
28306;BME280;7516;43.570;1.448;2023-08-30T03:52:17;99315.72;;;16.88;79.27
28306;BME280;7516;43.570;1.448;2023-08-30T03:54:44;99310.16;;;16.89;79.43
28306;BME280;7516;43.570;1.448;2023-08-30T03:57:12;99312.38;;;16.92;79.74
28306;BME280;7516;43.570;1.448;2023-08-30T03:59:39;99311.13;;;16.95;79.51
28306;BME280;7516;43.570;1.448;2023-08-30T04:02:08;99308.47;;;16.95;79.42
28306;BME280;7516;43.570;1.448;2023-08-30T04:04:36;99313.56;;;16.97;79.34
28306;BME280;7516;43.570;1.448;2023-08-30T04:07:03;99307.47;;;16.96;79.43
28306;BME280;7516;43.570;1.448;2023-08-30T04:09:31;99300.31;;;16.97;79.76
28306;BME280;7516;43.570;1.448;2023-08-30T04:11:58;99296.88;;;16.96;79.72
28306;BME280;7516;43.570;1.448;2023-08-30T04:14:26;99297.91;;;16.95;79.53
28306;BME280;7516;43.570;1.448;2023-08-30T04:16:54;99295.25;;;16.95;80.01
28306;BME280;7516;43.570;1.448;2023-08-30T04:19:22;99304.44;;;16.92;79.68
28306;BME280;7516;43.570;1.448;2023-08-30T04:21:50;99291.41;;;16.91;79.86
28306;BME280;7516;43.570;1.448;2023-08-30T04:24:17;99291.41;;;16.91;79.83
28306;BME280;7516;43.570;1.448;2023-08-30T04:26:45;99294.06;;;16.91;79.91
28306;BME280;7516;43.570;1.448;2023-08-30T04:29:16;99291.88;;;16.88;79.93
28306;BME280;7516;43.570;1.448;2023-08-30T04:31:44;99297.41;;;16.86;80.07
28306;BME280;7516;43.570;1.448;2023-08-30T04:34:11;99298.19;;;16.87;80.00
28306;BME280;7516;43.570;1.448;2023-08-30T04:36:40;99294.53;;;16.88;80.08
28306;BME280;7516;43.570;1.448;2023-08-30T04:39:07;99294.53;;;16.88;79.98
28306;BME280;7516;43.570;1.448;2023-08-30T04:41:35;99295.34;;;16.88;80.41
28306;BME280;7516;43.570;1.448;2023-08-30T04:44:03;99289.22;;;16.88;79.76
28306;BME280;7516;43.570;1.448;2023-08-30T04:46:31;99286.34;;;16.89;80.47
28306;BME280;7516;43.570;1.448;2023-08-30T04:48:58;99297.53;;;16.91;80.26
28306;BME280;7516;43.570;1.448;2023-08-30T04:51:26;99293.63;;;16.94;80.29
28306;BME280;7516;43.570;1.448;2023-08-30T04:53:55;99285.91;;;16.92;80.56
28306;BME280;7516;43.570;1.448;2023-08-30T04:56:23;99281.84;;;16.90;80.04
28306;BME280;7516;43.570;1.448;2023-08-30T04:58:51;99280.22;;;16.89;80.35
28306;BME280;7516;43.570;1.448;2023-08-30T05:01:18;99277.38;;;16.90;80.56
28306;BME280;7516;43.570;1.448;2023-08-30T05:03:46;99273.91;;;16.90;80.27
28306;BME280;7516;43.570;1.448;2023-08-30T05:06:13;99272.88;;;16.91;80.21
28306;BME280;7516;43.570;1.448;2023-08-30T05:08:42;99277.59;;;16.89;80.56
28306;BME280;7516;43.570;1.448;2023-08-30T05:11:11;99282.66;;;16.90;80.26
28306;BME280;7516;43.570;1.448;2023-08-30T05:13:38;99287.41;;;16.88;80.41
28306;BME280;7516;43.570;1.448;2023-08-30T05:16:06;99283.47;;;16.91;80.56
28306;BME280;7516;43.570;1.448;2023-08-30T05:18:33;99285.69;;;16.94;80.65
28306;BME280;7516;43.570;1.448;2023-08-30T05:21:01;99287.91;;;16.97;80.74
28306;BME280;7516;43.570;1.448;2023-08-30T05:23:29;99285.47;;;16.96;80.67
28306;BME280;7516;43.570;1.448;2023-08-30T05:25:57;99291.56;;;16.96;80.67
28306;BME280;7516;43.570;1.448;2023-08-30T05:28:26;99295.25;;;16.95;80.37
28306;BME280;7516;43.570;1.448;2023-08-30T05:30:53;99287.75;;;16.92;80.33
28306;BME280;7516;43.570;1.448;2023-08-30T05:33:21;99295.34;;;16.88;81.01
28306;BME280;7516;43.570;1.448;2023-08-30T05:35:48;99286.00;;;16.86;80.66
28306;BME280;7516;43.570;1.448;2023-08-30T05:38:16;99293.72;;;16.87;80.45
28306;BME280;7516;43.570;1.448;2023-08-30T05:40:43;99301.41;;;16.89;80.60
28306;BME280;7516;43.570;1.448;2023-08-30T05:43:11;99301.66;;;16.87;80.56
28306;BME280;7516;43.570;1.448;2023-08-30T05:45:40;99307.97;;;16.86;81.10
28306;BME280;7516;43.570;1.448;2023-08-30T05:48:07;99301.41;;;16.89;81.08
28306;BME280;7516;43.570;1.448;2023-08-30T05:50:35;99310.75;;;16.91;80.89
28306;BME280;7516;43.570;1.448;2023-08-30T05:53:03;99307.09;;;16.92;80.85
28306;BME280;7516;43.570;1.448;2023-08-30T05:55:31;99309.84;;;16.98;81.17
28306;BME280;7516;43.570;1.448;2023-08-30T05:57:58;99307.81;;;17.00;80.74
28306;BME280;7516;43.570;1.448;2023-08-30T06:00:26;99313.91;;;17.00;81.19
28306;BME280;7516;43.570;1.448;2023-08-30T06:02:54;99308.16;;;17.03;81.21
28306;BME280;7516;43.570;1.448;2023-08-30T06:05:22;99315.09;;;17.04;81.33
28306;BME280;7516;43.570;1.448;2023-08-30T06:07:49;99308.50;;;17.07;81.15
28306;BME280;7516;43.570;1.448;2023-08-30T06:10:17;99306.69;;;17.07;81.02
28306;BME280;7516;43.570;1.448;2023-08-30T06:12:45;99314.63;;;17.07;80.94
28306;BME280;7516;43.570;1.448;2023-08-30T06:15:12;99313.59;;;17.08;81.30
28306;BME280;7516;43.570;1.448;2023-08-30T06:17:39;99313.16;;;17.11;80.98
28306;BME280;7516;43.570;1.448;2023-08-30T06:20:09;99315.81;;;17.11;80.98
28306;BME280;7516;43.570;1.448;2023-08-30T06:22:37;99319.25;;;17.12;80.91
28306;BME280;7516;43.570;1.448;2023-08-30T06:25:05;99317.41;;;17.12;81.14
28306;BME280;7516;43.570;1.448;2023-08-30T06:27:33;99316.16;;;17.15;81.12
28306;BME280;7516;43.570;1.448;2023-08-30T06:30:01;99305.91;;;17.18;80.94
28306;BME280;7516;43.570;1.448;2023-08-30T06:32:29;99306.50;;;17.20;81.23
28306;BME280;7516;43.570;1.448;2023-08-30T06:34:57;99310.78;;;17.21;80.98
28306;BME280;7516;43.570;1.448;2023-08-30T06:37:26;99313.56;;;17.26;81.07
28306;BME280;7516;43.570;1.448;2023-08-30T06:39:54;99305.16;;;17.29;81.18
28306;BME280;7516;43.570;1.448;2023-08-30T06:42:21;99309.56;;;17.36;81.61
28306;BME280;7516;43.570;1.448;2023-08-30T06:44:50;99305.97;;;17.42;81.21
28306;BME280;7516;43.570;1.448;2023-08-30T06:47:18;99313.50;;;17.45;81.53
28306;BME280;7516;43.570;1.448;2023-08-30T06:49:45;99320.41;;;17.46;81.29
28306;BME280;7516;43.570;1.448;2023-08-30T06:52:13;99317.53;;;17.47;81.16
28306;BME280;7516;43.570;1.448;2023-08-30T06:54:41;99303.81;;;17.50;81.07
28306;BME280;7516;43.570;1.448;2023-08-30T06:57:09;99313.16;;;17.53;81.40
28306;BME280;7516;43.570;1.448;2023-08-30T06:59:36;99326.78;;;17.56;81.22
28306;BME280;7516;43.570;1.448;2023-08-30T07:02:04;99308.22;;;17.56;81.21
28306;BME280;7516;43.570;1.448;2023-08-30T07:04:32;99311.69;;;17.57;80.81
28306;BME280;7516;43.570;1.448;2023-08-30T07:06:59;99308.34;;;17.61;80.87
28306;BME280;7516;43.570;1.448;2023-08-30T07:09:26;99314.03;;;17.65;80.45
28306;BME280;7516;43.570;1.448;2023-08-30T07:11:57;99316.00;;;17.70;80.79
28306;BME280;7516;43.570;1.448;2023-08-30T07:14:25;99321.06;;;17.71;80.03
28306;BME280;7516;43.570;1.448;2023-08-30T07:16:52;99320.03;;;17.72;80.12
28306;BME280;7516;43.570;1.448;2023-08-30T07:19:20;99326.75;;;17.75;80.06
28306;BME280;7516;43.570;1.448;2023-08-30T07:21:47;99323.38;;;17.79;79.73
28306;BME280;7516;43.570;1.448;2023-08-30T07:24:15;99324.41;;;17.78;79.61
28306;BME280;7516;43.570;1.448;2023-08-30T07:26:42;99320.63;;;17.74;79.55
28306;BME280;7516;43.570;1.448;2023-08-30T07:29:11;99330.75;;;17.77;79.72
28306;BME280;7516;43.570;1.448;2023-08-30T07:31:38;99334.34;;;17.83;79.62
28306;BME280;7516;43.570;1.448;2023-08-30T07:34:07;99333.09;;;17.85;79.50
28306;BME280;7516;43.570;1.448;2023-08-30T07:36:34;99334.69;;;17.86;79.21
28306;BME280;7516;43.570;1.448;2023-08-30T07:39:02;99329.75;;;17.90;78.96
28306;BME280;7516;43.570;1.448;2023-08-30T07:41:29;99334.34;;;17.94;78.87
28306;BME280;7516;43.570;1.448;2023-08-30T07:43:57;99327.56;;;17.98;78.56
28306;BME280;7516;43.570;1.448;2023-08-30T07:46:26;99327.13;;;18.01;78.52
28306;BME280;7516;43.570;1.448;2023-08-30T07:48:54;99330.09;;;18.05;78.52
28306;BME280;7516;43.570;1.448;2023-08-30T07:51:21;99328.13;;;18.12;78.10
28306;BME280;7516;43.570;1.448;2023-08-30T07:53:49;99328.28;;;18.17;77.89
28306;BME280;7516;43.570;1.448;2023-08-30T07:56:16;99327.13;;;18.25;78.09
28306;BME280;7516;43.570;1.448;2023-08-30T07:58:44;99335.53;;;18.33;77.43
28306;BME280;7516;43.570;1.448;2023-08-30T08:01:11;99334.84;;;18.38;77.28
28306;BME280;7516;43.570;1.448;2023-08-30T08:03:40;99327.56;;;18.45;77.12
28306;BME280;7516;43.570;1.448;2023-08-30T08:06:08;99332.53;;;18.53;76.79
28306;BME280;7516;43.570;1.448;2023-08-30T08:08:35;99334.50;;;18.58;76.29
28306;BME280;7516;43.570;1.448;2023-08-30T08:11:02;99339.56;;;18.59;76.13
28306;BME280;7516;43.570;1.448;2023-08-30T08:13:30;99336.91;;;18.59;75.68
28306;BME280;7516;43.570;1.448;2023-08-30T08:15:58;99328.16;;;18.59;75.34
28306;BME280;7516;43.570;1.448;2023-08-30T08:18:25;99336.13;;;18.59;75.15
28306;BME280;7516;43.570;1.448;2023-08-30T08:20:54;99338.63;;;18.65;75.08
28306;BME280;7516;43.570;1.448;2023-08-30T08:23:23;99343.94;;;18.65;74.64
28306;BME280;7516;43.570;1.448;2023-08-30T08:25:57;99345.00;;;18.64;74.68
28306;BME280;7516;43.570;1.448;2023-08-30T08:28:25;99349.59;;;18.69;74.34
28306;BME280;7516;43.570;1.448;2023-08-30T08:30:52;99346.50;;;18.72;74.02
28306;BME280;7516;43.570;1.448;2023-08-30T08:33:20;99349.69;;;18.74;73.98
28306;BME280;7516;43.570;1.448;2023-08-30T08:35:49;99349.81;;;18.79;73.65
28306;BME280;7516;43.570;1.448;2023-08-30T08:38:18;99361.03;;;18.81;73.36
28306;BME280;7516;43.570;1.448;2023-08-30T08:40:45;99357.56;;;18.81;73.15
28306;BME280;7516;43.570;1.448;2023-08-30T08:43:13;99354.41;;;18.84;73.18
28306;BME280;7516;43.570;1.448;2023-08-30T08:45:42;99364.56;;;18.87;72.83
28306;BME280;7516;43.570;1.448;2023-08-30T08:48:11;99365.16;;;18.89;72.59
28306;BME280;7516;43.570;1.448;2023-08-30T08:50:40;99372.91;;;18.90;72.52
28306;BME280;7516;43.570;1.448;2023-08-30T08:53:08;99372.91;;;18.90;72.30
28306;BME280;7516;43.570;1.448;2023-08-30T08:55:37;99378.53;;;18.94;72.27
28306;BME280;7516;43.570;1.448;2023-08-30T08:58:06;99380.72;;;18.97;72.30
28306;BME280;7516;43.570;1.448;2023-08-30T09:00:34;99378.16;;;19.02;72.22
28306;BME280;7516;43.570;1.448;2023-08-30T09:03:03;99377.78;;;19.10;72.06
28306;BME280;7516;43.570;1.448;2023-08-30T09:05:32;99389.56;;;19.14;71.72
28306;BME280;7516;43.570;1.448;2023-08-30T09:08:01;99389.13;;;19.17;71.89
28306;BME280;7516;43.570;1.448;2023-08-30T09:10:29;99389.19;;;19.22;71.70
28306;BME280;7516;43.570;1.448;2023-08-30T09:12:58;99380.28;;;19.28;71.80
28306;BME280;7516;43.570;1.448;2023-08-30T09:15:31;99382.09;;;19.39;71.75
28306;BME280;7516;43.570;1.448;2023-08-30T09:17:59;99382.75;;;19.46;71.35
28306;BME280;7516;43.570;1.448;2023-08-30T09:20:26;99387.72;;;19.54;71.27
28306;BME280;7516;43.570;1.448;2023-08-30T09:22:54;99387.72;;;19.54;71.51
28306;BME280;7516;43.570;1.448;2023-08-30T09:25:26;99396.25;;;19.57;71.07
28306;BME280;7516;43.570;1.448;2023-08-30T09:27:58;99396.72;;;19.53;70.95
28306;BME280;7516;43.570;1.448;2023-08-30T09:30:26;99398.91;;;19.57;70.96
28306;BME280;7516;43.570;1.448;2023-08-30T09:32:54;99391.59;;;19.64;70.88
28306;BME280;7516;43.570;1.448;2023-08-30T09:35:28;99399.81;;;19.62;71.07
28306;BME280;7516;43.570;1.448;2023-08-30T09:37:55;99397.16;;;19.62;71.04
28306;BME280;7516;43.570;1.448;2023-08-30T09:40:23;99393.38;;;19.58;70.84
28306;BME280;7516;43.570;1.448;2023-08-30T09:42:51;99395.78;;;19.60;70.92
28306;BME280;7516;43.570;1.448;2023-08-30T09:45:22;99391.03;;;19.62;70.79
28306;BME280;7516;43.570;1.448;2023-08-30T09:47:50;99392.50;;;19.69;71.03
28306;BME280;7516;43.570;1.448;2023-08-30T09:50:20;99392.34;;;19.76;71.09
28306;BME280;7516;43.570;1.448;2023-08-30T09:52:48;99395.31;;;19.79;70.86
28306;BME280;7516;43.570;1.448;2023-08-30T09:55:18;99402.03;;;19.82;71.06
28306;BME280;7516;43.570;1.448;2023-08-30T09:57:46;99392.03;;;19.89;70.72
28306;BME280;7516;43.570;1.448;2023-08-30T10:00:15;99403.81;;;19.93;70.77
28306;BME280;7516;43.570;1.448;2023-08-30T10:02:44;99403.25;;;19.91;70.30
28306;BME280;7516;43.570;1.448;2023-08-30T10:05:12;99400.00;;;19.89;70.47
28306;BME280;7516;43.570;1.448;2023-08-30T10:07:40;99396.53;;;19.88;70.85
28306;BME280;7516;43.570;1.448;2023-08-30T10:10:10;99393.19;;;19.93;70.44
28306;BME280;7516;43.570;1.448;2023-08-30T10:12:38;99389.47;;;19.94;70.42
28306;BME280;7516;43.570;1.448;2023-08-30T10:15:06;99393.81;;;20.00;70.70
28306;BME280;7516;43.570;1.448;2023-08-30T10:17:34;99392.84;;;20.06;70.60
28306;BME280;7516;43.570;1.448;2023-08-30T10:20:05;99392.38;;;20.09;70.22
28306;BME280;7516;43.570;1.448;2023-08-30T10:22:36;99386.59;;;20.12;70.38
28306;BME280;7516;43.570;1.448;2023-08-30T10:25:07;99383.41;;;20.15;70.18
28306;BME280;7516;43.570;1.448;2023-08-30T10:27:38;99387.78;;;20.21;69.81
28306;BME280;7516;43.570;1.448;2023-08-30T10:30:07;99396.31;;;20.23;70.03
28306;BME280;7516;43.570;1.448;2023-08-30T10:32:39;99388.34;;;20.23;69.94
28306;BME280;7516;43.570;1.448;2023-08-30T10:35:11;99389.00;;;20.31;70.02
28306;BME280;7516;43.570;1.448;2023-08-30T10:37:39;99395.00;;;20.38;69.85
28306;BME280;7516;43.570;1.448;2023-08-30T10:40:08;99382.25;;;20.40;69.62
28306;BME280;7516;43.570;1.448;2023-08-30T10:42:36;99383.19;;;20.50;69.83
28306;BME280;7516;43.570;1.448;2023-08-30T10:45:05;99383.72;;;20.69;69.38
28306;BME280;7516;43.570;1.448;2023-08-30T10:47:35;99380.13;;;20.80;69.19
28306;BME280;7516;43.570;1.448;2023-08-30T10:50:06;99387.13;;;20.86;68.82
28306;BME280;7516;43.570;1.448;2023-08-30T10:52:35;99390.34;;;20.88;68.61
28306;BME280;7516;43.570;1.448;2023-08-30T10:55:07;99392.97;;;20.83;68.55
28306;BME280;7516;43.570;1.448;2023-08-30T10:57:35;99388.94;;;20.81;68.43
28306;BME280;7516;43.570;1.448;2023-08-30T11:00:07;99381.38;;;20.73;67.98
28306;BME280;7516;43.570;1.448;2023-08-30T11:02:35;99383.72;;;20.69;68.10
28306;BME280;7516;43.570;1.448;2023-08-30T11:05:05;99380.81;;;20.71;68.39
28306;BME280;7516;43.570;1.448;2023-08-30T11:07:35;99381.66;;;20.76;68.16
28306;BME280;7516;43.570;1.448;2023-08-30T11:10:04;99381.50;;;20.83;68.20
28306;BME280;7516;43.570;1.448;2023-08-30T11:12:32;99369.03;;;20.88;68.32
28306;BME280;7516;43.570;1.448;2023-08-30T11:15:01;99368.69;;;21.01;68.06
28306;BME280;7516;43.570;1.448;2023-08-30T11:17:29;99359.25;;;21.16;68.38
28306;BME280;7516;43.570;1.448;2023-08-30T11:20:07;99353.25;;;21.25;67.93
28306;BME280;7516;43.570;1.448;2023-08-30T11:22:37;99361.84;;;21.32;67.61
28306;BME280;7516;43.570;1.448;2023-08-30T11:25:07;99358.63;;;21.30;67.38
28306;BME280;7516;43.570;1.448;2023-08-30T11:27:34;99360.00;;;21.33;67.48
28306;BME280;7516;43.570;1.448;2023-08-30T11:30:03;99354.09;;;21.31;67.50
28306;BME280;7516;43.570;1.448;2023-08-30T11:32:33;99355.97;;;21.30;67.43
28306;BME280;7516;43.570;1.448;2023-08-30T11:35:01;99357.81;;;21.30;67.36
28306;BME280;7516;43.570;1.448;2023-08-30T11:37:29;99357.56;;;21.31;67.41
28306;BME280;7516;43.570;1.448;2023-08-30T11:39:59;99362.66;;;21.33;67.37
28306;BME280;7516;43.570;1.448;2023-08-30T11:42:26;99362.66;;;21.33;67.33
28306;BME280;7516;43.570;1.448;2023-08-30T11:44:54;99357.69;;;21.42;67.21
28306;BME280;7516;43.570;1.448;2023-08-30T11:47:24;99360.16;;;21.48;67.11
28306;BME280;7516;43.570;1.448;2023-08-30T11:49:53;99365.78;;;21.52;67.05
28306;BME280;7516;43.570;1.448;2023-08-30T11:52:22;99352.47;;;21.52;67.19
28306;BME280;7516;43.570;1.448;2023-08-30T11:54:50;99354.34;;;21.56;67.10
28306;BME280;7516;43.570;1.448;2023-08-30T11:57:20;99343.75;;;21.61;67.06
28306;BME280;7516;43.570;1.448;2023-08-30T11:59:47;99343.31;;;21.74;66.70
28306;BME280;7516;43.570;1.448;2023-08-30T12:02:17;99345.50;;;21.77;66.22
28306;BME280;7516;43.570;1.448;2023-08-30T12:04:46;99348.66;;;21.74;66.67
28306;BME280;7516;43.570;1.448;2023-08-30T12:07:21;99353.97;;;21.69;66.42
28306;BME280;7516;43.570;1.448;2023-08-30T12:09:50;99363.00;;;21.68;66.64
28306;BME280;7516;43.570;1.448;2023-08-30T12:12:19;99351.53;;;21.68;66.70
28306;BME280;7516;43.570;1.448;2023-08-30T12:14:55;99348.50;;;21.86;67.14
28306;BME280;7516;43.570;1.448;2023-08-30T12:17:23;99352.63;;;21.99;66.42
28306;BME280;7516;43.570;1.448;2023-08-30T12:19:56;99350.00;;;22.04;66.13
28306;BME280;7516;43.570;1.448;2023-08-30T12:22:23;99359.66;;;22.10;66.00
28306;BME280;7516;43.570;1.448;2023-08-30T12:24:51;99359.66;;;22.10;66.12
28306;BME280;7516;43.570;1.448;2023-08-30T12:27:20;99353.81;;;22.18;65.83
28306;BME280;7516;43.570;1.448;2023-08-30T12:29:48;99362.94;;;22.22;65.62
28306;BME280;7516;43.570;1.448;2023-08-30T12:32:16;99364.56;;;22.23;65.45
28306;BME280;7516;43.570;1.448;2023-08-30T12:34:44;99363.19;;;22.21;65.67
28306;BME280;7516;43.570;1.448;2023-08-30T12:37:11;99361.34;;;22.26;65.55
28306;BME280;7516;43.570;1.448;2023-08-30T12:39:39;99355.53;;;22.34;65.47
28306;BME280;7516;43.570;1.448;2023-08-30T12:42:06;99364.66;;;22.38;65.42
28306;BME280;7516;43.570;1.448;2023-08-30T12:44:35;99363.94;;;22.53;65.36
28306;BME280;7516;43.570;1.448;2023-08-30T12:47:03;99357.28;;;22.56;64.99
28306;BME280;7516;43.570;1.448;2023-08-30T12:49:30;99355.72;;;22.65;65.01
28306;BME280;7516;43.570;1.448;2023-08-30T12:51:58;99362.75;;;22.76;64.61
28306;BME280;7516;43.570;1.448;2023-08-30T12:54:25;99365.19;;;22.77;64.32
28306;BME280;7516;43.570;1.448;2023-08-30T12:56:53;99369.66;;;22.72;64.11
28306;BME280;7516;43.570;1.448;2023-08-30T12:59:20;99365.09;;;22.67;64.01
28306;BME280;7516;43.570;1.448;2023-08-30T13:01:49;99361.06;;;22.65;63.51
28306;BME280;7516;43.570;1.448;2023-08-30T13:04:17;99353.06;;;22.65;63.92
28306;BME280;7516;43.570;1.448;2023-08-30T13:06:44;99358.94;;;22.67;63.88
28306;BME280;7516;43.570;1.448;2023-08-30T13:09:12;99348.34;;;22.77;63.69
28306;BME280;7516;43.570;1.448;2023-08-30T13:11:39;99353.19;;;22.90;63.22
28306;BME280;7516;43.570;1.448;2023-08-30T13:14:07;99341.19;;;22.98;62.78
28306;BME280;7516;43.570;1.448;2023-08-30T13:16:34;99348.69;;;23.01;62.55